sensor_id;sensor_type;location;lat;lon;timestamp;pressure;altitude;pressure_sealevel;temperature;humidity
31595;BME280;18200;48.726;8.892;2022-11-23T00:00:17;95428.97;;;14.10;42.35
31595;BME280;18200;48.726;8.892;2022-11-23T00:04:17;95425.59;;;14.29;42.26
31595;BME280;18200;48.726;8.892;2022-11-23T00:08:18;95414.66;;;14.36;42.06
31595;BME280;18200;48.726;8.892;2022-11-23T00:12:18;95420.66;;;14.47;43.05
31595;BME280;18200;48.726;8.892;2022-11-23T00:16:24;95416.53;;;14.16;41.98
31595;BME280;18200;48.726;8.892;2022-11-23T00:20:25;95421.09;;;14.19;43.22
31595;BME280;18200;48.726;8.892;2022-11-23T00:24:25;95419.91;;;13.96;41.50
31595;BME280;18200;48.726;8.892;2022-11-23T00:28:26;95407.94;;;14.44;43.38
31595;BME280;18200;48.726;8.892;2022-11-23T00:32:28;95411.81;;;14.66;42.43
31595;BME280;18200;48.726;8.892;2022-11-23T00:36:28;95411.00;;;15.08;42.18
31595;BME280;18200;48.726;8.892;2022-11-23T00:40:29;95425.16;;;14.53;42.00
31595;BME280;18200;48.726;8.892;2022-11-23T00:44:29;95418.09;;;14.13;41.09
31595;BME280;18200;48.726;8.892;2022-11-23T00:48:30;95414.81;;;14.25;41.91
31595;BME280;18200;48.726;8.892;2022-11-23T00:52:31;95422.81;;;13.56;41.74
31595;BME280;18200;48.726;8.892;2022-11-23T00:56:33;95416.56;;;13.62;42.32
31595;BME280;18200;48.726;8.892;2022-11-23T01:00:34;95409.28;;;13.86;42.07
31595;BME280;18200;48.726;8.892;2022-11-23T01:04:34;95407.47;;;14.02;42.41
31595;BME280;18200;48.726;8.892;2022-11-23T01:08:35;95402.13;;;13.99;42.07
31595;BME280;18200;48.726;8.892;2022-11-23T01:12:36;95407.22;;;14.17;41.39
31595;BME280;18200;48.726;8.892;2022-11-23T01:16:39;95415.81;;;14.12;41.80
31595;BME280;18200;48.726;8.892;2022-11-23T01:20:39;95414.50;;;13.96;41.87
31595;BME280;18200;48.726;8.892;2022-11-23T01:24:42;95411.19;;;13.59;43.08
31595;BME280;18200;48.726;8.892;2022-11-23T01:28:44;95409.31;;;13.82;41.87
31595;BME280;18200;48.726;8.892;2022-11-23T01:32:44;95413.88;;;13.32;43.12
31595;BME280;18200;48.726;8.892;2022-11-23T01:36:45;95416.66;;;13.55;42.20
31595;BME280;18200;48.726;8.892;2022-11-23T01:40:46;95426.28;;;12.92;43.85
31595;BME280;18200;48.726;8.892;2022-11-23T01:44:47;95416.88;;;13.91;42.32
31595;BME280;18200;48.726;8.892;2022-11-23T01:52:51;95417.25;;;13.66;42.09
31595;BME280;18200;48.726;8.892;2022-11-23T01:56:59;95422.22;;;13.71;41.65
31595;BME280;18200;48.726;8.892;2022-11-23T02:01:00;95433.91;;;13.88;41.77
31595;BME280;18200;48.726;8.892;2022-11-23T02:05:01;95437.03;;;13.30;42.00
31595;BME280;18200;48.726;8.892;2022-11-23T02:09:03;95437.31;;;13.65;42.57
31595;BME280;18200;48.726;8.892;2022-11-23T02:13:07;95435.25;;;13.46;42.49
31595;BME280;18200;48.726;8.892;2022-11-23T02:17:09;95443.25;;;13.23;42.80
31595;BME280;18200;48.726;8.892;2022-11-23T02:21:10;95436.84;;;13.44;42.26
31595;BME280;18200;48.726;8.892;2022-11-23T02:25:24;95440.56;;;13.53;42.32
31595;BME280;18200;48.726;8.892;2022-11-23T02:29:27;95436.88;;;13.40;42.86
31595;BME280;18200;48.726;8.892;2022-11-23T02:33:29;95444.22;;;13.09;42.79
31595;BME280;18200;48.726;8.892;2022-11-23T02:37:29;95439.78;;;13.56;42.58
31595;BME280;18200;48.726;8.892;2022-11-23T02:41:37;95445.84;;;12.63;44.36
31595;BME280;18200;48.726;8.892;2022-11-23T02:45:43;95430.41;;;13.34;42.07
31595;BME280;18200;48.726;8.892;2022-11-23T02:49:46;95434.75;;;12.54;43.53
31595;BME280;18200;48.726;8.892;2022-11-23T02:53:47;95443.66;;;12.88;42.77
31595;BME280;18200;48.726;8.892;2022-11-23T02:57:47;95446.06;;;12.79;42.95
31595;BME280;18200;48.726;8.892;2022-11-23T03:01:49;95442.69;;;12.68;42.83
31595;BME280;18200;48.726;8.892;2022-11-23T03:05:50;95448.38;;;12.77;43.64
31595;BME280;18200;48.726;8.892;2022-11-23T03:09:50;95444.50;;;12.78;43.62
31595;BME280;18200;48.726;8.892;2022-11-23T03:13:52;95442.63;;;13.12;43.07
31595;BME280;18200;48.726;8.892;2022-11-23T03:17:56;95450.44;;;13.33;42.75
31595;BME280;18200;48.726;8.892;2022-11-23T03:21:56;95453.69;;;13.21;42.54
31595;BME280;18200;48.726;8.892;2022-11-23T03:25:57;95448.75;;;13.16;42.77
31595;BME280;18200;48.726;8.892;2022-11-23T03:30:00;95450.84;;;13.35;42.50
31595;BME280;18200;48.726;8.892;2022-11-23T03:34:03;95448.84;;;13.39;42.07
31595;BME280;18200;48.726;8.892;2022-11-23T03:38:05;95448.31;;;13.51;42.45
31595;BME280;18200;48.726;8.892;2022-11-23T03:42:06;95446.28;;;13.29;42.86
31595;BME280;18200;48.726;8.892;2022-11-23T03:46:08;95447.22;;;13.15;42.67
31595;BME280;18200;48.726;8.892;2022-11-23T03:50:08;95448.13;;;13.05;42.40
31595;BME280;18200;48.726;8.892;2022-11-23T03:54:11;95427.81;;;13.27;42.33
31595;BME280;18200;48.726;8.892;2022-11-23T03:58:12;95452.34;;;12.65;43.17
31595;BME280;18200;48.726;8.892;2022-11-23T04:02:12;95429.59;;;13.07;43.35
31595;BME280;18200;48.726;8.892;2022-11-23T04:06:20;95434.38;;;12.89;43.36
31595;BME280;18200;48.726;8.892;2022-11-23T04:10:31;95430.06;;;13.32;42.92
31595;BME280;18200;48.726;8.892;2022-11-23T04:14:48;95435.97;;;13.50;43.36
31595;BME280;18200;48.726;8.892;2022-11-23T04:18:48;95432.03;;;13.58;43.53
31595;BME280;18200;48.726;8.892;2022-11-23T04:22:50;95434.66;;;13.35;44.15
31595;BME280;18200;48.726;8.892;2022-11-23T04:26:51;95434.47;;;13.49;43.24
31595;BME280;18200;48.726;8.892;2022-11-23T04:30:52;95429.78;;;13.23;42.60
31595;BME280;18200;48.726;8.892;2022-11-23T04:34:53;95425.47;;;13.29;43.23
31595;BME280;18200;48.726;8.892;2022-11-23T04:38:53;95425.47;;;13.29;43.42
31595;BME280;18200;48.726;8.892;2022-11-23T04:43:01;95418.84;;;13.37;43.54
31595;BME280;18200;48.726;8.892;2022-11-23T04:47:02;95425.66;;;13.45;43.44
31595;BME280;18200;48.726;8.892;2022-11-23T04:51:04;95424.59;;;13.39;42.80
31595;BME280;18200;48.726;8.892;2022-11-23T04:55:10;95419.91;;;13.43;43.21
31595;BME280;18200;48.726;8.892;2022-11-23T04:59:18;95421.69;;;13.53;43.28
31595;BME280;18200;48.726;8.892;2022-11-23T05:03:19;95425.28;;;13.43;43.43
31595;BME280;18200;48.726;8.892;2022-11-23T05:07:19;95421.25;;;13.58;43.09
31595;BME280;18200;48.726;8.892;2022-11-23T05:11:26;95420.97;;;13.76;43.30
31595;BME280;18200;48.726;8.892;2022-11-23T05:15:28;95424.16;;;13.71;43.20
31595;BME280;18200;48.726;8.892;2022-11-23T05:19:29;95428.34;;;13.45;44.03
31595;BME280;18200;48.726;8.892;2022-11-23T05:23:30;95423.31;;;13.17;43.92
31595;BME280;18200;48.726;8.892;2022-11-23T05:27:33;95419.22;;;12.68;43.82
31595;BME280;18200;48.726;8.892;2022-11-23T05:31:35;95426.66;;;12.91;44.44
31595;BME280;18200;48.726;8.892;2022-11-23T05:35:35;95417.72;;;12.97;45.21
31595;BME280;18200;48.726;8.892;2022-11-23T05:39:36;95423.38;;;13.10;44.28
31595;BME280;18200;48.726;8.892;2022-11-23T05:43:37;95418.94;;;12.93;44.48
31595;BME280;18200;48.726;8.892;2022-11-23T05:47:41;95416.84;;;12.74;46.01
31595;BME280;18200;48.726;8.892;2022-11-23T05:51:54;95428.41;;;13.08;45.31
31595;BME280;18200;48.726;8.892;2022-11-23T05:56:01;95423.03;;;13.38;44.35
31595;BME280;18200;48.726;8.892;2022-11-23T06:00:05;95416.06;;;13.41;44.34
31595;BME280;18200;48.726;8.892;2022-11-23T06:04:19;95414.38;;;13.50;44.27
31595;BME280;18200;48.726;8.892;2022-11-23T06:08:20;95424.94;;;13.11;44.57
31595;BME280;18200;48.726;8.892;2022-11-23T06:12:22;95421.94;;;13.62;43.95
31595;BME280;18200;48.726;8.892;2022-11-23T06:16:22;95419.50;;;13.71;44.13
31595;BME280;18200;48.726;8.892;2022-11-23T06:20:35;95424.47;;;13.99;42.67
31595;BME280;18200;48.726;8.892;2022-11-23T06:24:36;95423.38;;;13.70;43.57
31595;BME280;18200;48.726;8.892;2022-11-23T06:28:57;95423.28;;;13.77;43.59
31595;BME280;18200;48.726;8.892;2022-11-23T06:33:01;95411.03;;;13.69;44.08
31595;BME280;18200;48.726;8.892;2022-11-23T06:37:02;95412.94;;;13.72;43.50
31595;BME280;18200;48.726;8.892;2022-11-23T06:41:03;95420.63;;;13.47;43.59
31595;BME280;18200;48.726;8.892;2022-11-23T06:45:05;95411.78;;;13.73;43.63
31595;BME280;18200;48.726;8.892;2022-11-23T06:49:06;95418.03;;;13.67;43.93
31595;BME280;18200;48.726;8.892;2022-11-23T06:53:08;95417.72;;;13.31;44.52
31595;BME280;18200;48.726;8.892;2022-11-23T06:57:16;95432.44;;;13.27;44.38
31595;BME280;18200;48.726;8.892;2022-11-23T07:01:17;95433.94;;;12.57;46.27
31595;BME280;18200;48.726;8.892;2022-11-23T07:05:26;95435.22;;;12.86;45.59
31595;BME280;18200;48.726;8.892;2022-11-23T07:09:27;95435.09;;;12.93;44.65
31595;BME280;18200;48.726;8.892;2022-11-23T07:13:54;95436.94;;;12.66;45.69
31595;BME280;18200;48.726;8.892;2022-11-23T07:17:57;95442.25;;;12.32;47.14
31595;BME280;18200;48.726;8.892;2022-11-23T07:21:58;95442.03;;;12.57;45.93
31595;BME280;18200;48.726;8.892;2022-11-23T07:26:01;95440.06;;;12.61;46.14
31595;BME280;18200;48.726;8.892;2022-11-23T07:30:02;95450.94;;;12.50;45.90
31595;BME280;18200;48.726;8.892;2022-11-23T07:34:03;95454.19;;;12.34;46.22
31595;BME280;18200;48.726;8.892;2022-11-23T07:38:05;95447.72;;;12.66;45.78
31595;BME280;18200;48.726;8.892;2022-11-23T07:42:07;95455.09;;;12.17;47.27
31595;BME280;18200;48.726;8.892;2022-11-23T07:46:10;95455.81;;;12.21;46.79
31595;BME280;18200;48.726;8.892;2022-11-23T07:50:11;95457.31;;;12.26;47.41
31595;BME280;18200;48.726;8.892;2022-11-23T07:54:12;95448.16;;;12.98;45.42
31595;BME280;18200;48.726;8.892;2022-11-23T07:58:13;95447.22;;;13.15;45.27
31595;BME280;18200;48.726;8.892;2022-11-23T08:02:14;95452.16;;;13.50;44.38
31595;BME280;18200;48.726;8.892;2022-11-23T08:06:15;95453.97;;;13.60;44.17
31595;BME280;18200;48.726;8.892;2022-11-23T08:10:15;95459.72;;;12.95;46.17
31595;BME280;18200;48.726;8.892;2022-11-23T08:14:16;95459.00;;;12.09;48.38
31595;BME280;18200;48.726;8.892;2022-11-23T08:18:16;95465.69;;;12.38;47.04
31595;BME280;18200;48.726;8.892;2022-11-23T08:22:16;95456.03;;;13.19;45.94
31595;BME280;18200;48.726;8.892;2022-11-23T08:26:17;95466.97;;;13.05;45.29
31595;BME280;18200;48.726;8.892;2022-11-23T08:30:18;95464.50;;;13.51;45.54
31595;BME280;18200;48.726;8.892;2022-11-23T08:34:18;95457.00;;;13.92;44.60
31595;BME280;18200;48.726;8.892;2022-11-23T08:38:19;95457.47;;;14.11;44.50
31595;BME280;18200;48.726;8.892;2022-11-23T08:42:19;95456.22;;;14.42;43.90
31595;BME280;18200;48.726;8.892;2022-11-23T08:46:20;95448.06;;;14.68;43.90
31595;BME280;18200;48.726;8.892;2022-11-23T08:50:21;95440.84;;;15.24;43.66
31595;BME280;18200;48.726;8.892;2022-11-23T08:54:21;95448.13;;;15.83;41.98
31595;BME280;18200;48.726;8.892;2022-11-23T08:58:23;95444.97;;;15.68;42.70
31595;BME280;18200;48.726;8.892;2022-11-23T09:02:23;95449.34;;;15.98;41.99
31595;BME280;18200;48.726;8.892;2022-11-23T09:06:24;95448.69;;;16.26;41.36
31595;BME280;18200;48.726;8.892;2022-11-23T09:10:28;95446.41;;;16.24;41.48
31595;BME280;18200;48.726;8.892;2022-11-23T09:14:28;95438.63;;;16.59;40.31
31595;BME280;18200;48.726;8.892;2022-11-23T09:18:29;95445.47;;;15.99;41.10
31595;BME280;18200;48.726;8.892;2022-11-23T09:22:30;95447.66;;;16.36;40.69
31595;BME280;18200;48.726;8.892;2022-11-23T09:26:31;95446.00;;;16.58;40.13
31595;BME280;18200;48.726;8.892;2022-11-23T09:30:33;95447.16;;;16.73;39.81
31595;BME280;18200;48.726;8.892;2022-11-23T09:34:33;95450.41;;;16.52;40.26
31595;BME280;18200;48.726;8.892;2022-11-23T09:38:33;95455.44;;;16.02;40.79
31595;BME280;18200;48.726;8.892;2022-11-23T09:47:24;95464.25;;;16.38;40.64
31595;BME280;18200;48.726;8.892;2022-11-23T09:51:29;95462.91;;;16.78;39.54
31595;BME280;18200;48.726;8.892;2022-11-23T09:55:38;95451.06;;;17.01;39.24
31595;BME280;18200;48.726;8.892;2022-11-23T10:00:00;95446.69;;;17.20;39.01
31595;BME280;18200;48.726;8.892;2022-11-23T10:04:03;95445.38;;;17.12;38.76
31595;BME280;18200;48.726;8.892;2022-11-23T10:08:21;95442.19;;;17.42;38.34
31595;BME280;18200;48.726;8.892;2022-11-23T10:12:43;95434.47;;;17.81;37.75
31595;BME280;18200;48.726;8.892;2022-11-23T10:16:57;95427.84;;;17.29;38.94
31595;BME280;18200;48.726;8.892;2022-11-23T10:25:19;95426.09;;;18.01;37.64
31595;BME280;18200;48.726;8.892;2022-11-23T10:29:33;95435.31;;;17.78;37.35
31595;BME280;18200;48.726;8.892;2022-11-23T10:33:44;95429.47;;;17.67;37.39
31595;BME280;18200;48.726;8.892;2022-11-23T10:37:48;95424.13;;;18.02;37.31
31595;BME280;18200;48.726;8.892;2022-11-23T10:41:50;95414.44;;;18.13;37.32
31595;BME280;18200;48.726;8.892;2022-11-23T10:45:50;95419.75;;;18.29;36.67
31595;BME280;18200;48.726;8.892;2022-11-23T10:49:57;95414.97;;;17.58;37.53
31595;BME280;18200;48.726;8.892;2022-11-23T10:54:01;95413.25;;;17.89;37.36
31595;BME280;18200;48.726;8.892;2022-11-23T10:58:02;95422.72;;;18.10;36.88
31595;BME280;18200;48.726;8.892;2022-11-23T11:02:21;95414.84;;;18.37;36.80
31595;BME280;18200;48.726;8.892;2022-11-23T11:06:29;95405.88;;;18.96;35.39
31595;BME280;18200;48.726;8.892;2022-11-23T11:14:33;95401.84;;;18.66;36.11
31595;BME280;18200;48.726;8.892;2022-11-23T11:18:36;95398.28;;;18.69;36.68
31595;BME280;18200;48.726;8.892;2022-11-23T11:22:37;95394.28;;;18.83;35.57
31595;BME280;18200;48.726;8.892;2022-11-23T11:26:47;95385.63;;;18.28;36.08
31595;BME280;18200;48.726;8.892;2022-11-23T11:35:28;95393.34;;;19.20;34.40
31595;BME280;18200;48.726;8.892;2022-11-23T11:39:42;95386.44;;;18.63;35.04
31595;BME280;18200;48.726;8.892;2022-11-23T11:43:51;95378.50;;;19.12;35.06
31595;BME280;18200;48.726;8.892;2022-11-23T11:47:58;95377.31;;;18.44;35.56
31595;BME280;18200;48.726;8.892;2022-11-23T11:52:07;95372.59;;;18.92;35.30
31595;BME280;18200;48.726;8.892;2022-11-23T11:56:23;95362.19;;;19.21;34.37
31595;BME280;18200;48.726;8.892;2022-11-23T12:00:25;95361.28;;;19.76;33.75
31595;BME280;18200;48.726;8.892;2022-11-23T12:04:44;95351.72;;;20.11;33.52
31595;BME280;18200;48.726;8.892;2022-11-23T12:09:11;95350.50;;;20.12;33.05
31595;BME280;18200;48.726;8.892;2022-11-23T12:13:21;95344.72;;;20.10;32.91
31595;BME280;18200;48.726;8.892;2022-11-23T12:17:50;95336.94;;;20.31;32.43
31595;BME280;18200;48.726;8.892;2022-11-23T12:39:46;95337.56;;;21.58;30.53
31595;BME280;18200;48.726;8.892;2022-11-23T12:53:23;95343.72;;;19.16;34.67
31595;BME280;18200;48.726;8.892;2022-11-23T12:57:38;95332.56;;;19.84;34.30
31595;BME280;18200;48.726;8.892;2022-11-23T13:01:45;95332.69;;;20.21;33.05
31595;BME280;18200;48.726;8.892;2022-11-23T13:10:52;95325.09;;;22.08;30.85
31595;BME280;18200;48.726;8.892;2022-11-23T13:19:46;95312.69;;;22.83;29.96
31595;BME280;18200;48.726;8.892;2022-11-23T13:23:49;95310.06;;;23.62;28.34
31595;BME280;18200;48.726;8.892;2022-11-23T13:40:32;95287.66;;;23.98;27.98
31595;BME280;18200;48.726;8.892;2022-11-23T13:44:32;95280.63;;;23.42;27.29
31595;BME280;18200;48.726;8.892;2022-11-23T13:48:47;95275.81;;;22.55;28.78
31595;BME280;18200;48.726;8.892;2022-11-23T13:52:49;95269.84;;;23.39;27.40
31595;BME280;18200;48.726;8.892;2022-11-23T13:56:58;95256.22;;;23.44;27.30
31595;BME280;18200;48.726;8.892;2022-11-23T14:01:00;95257.56;;;23.49;27.00
31595;BME280;18200;48.726;8.892;2022-11-23T14:05:30;95264.59;;;21.49;29.72
31595;BME280;18200;48.726;8.892;2022-11-23T14:09:43;95260.19;;;22.85;28.77
31595;BME280;18200;48.726;8.892;2022-11-23T14:13:52;95252.22;;;23.60;26.98
31595;BME280;18200;48.726;8.892;2022-11-23T14:18:00;95260.69;;;24.31;25.85
31595;BME280;18200;48.726;8.892;2022-11-23T14:31:16;95240.28;;;21.51;30.22
31595;BME280;18200;48.726;8.892;2022-11-23T14:35:32;95235.97;;;21.59;29.34
31595;BME280;18200;48.726;8.892;2022-11-23T14:43:59;95228.00;;;21.14;30.51
31595;BME280;18200;48.726;8.892;2022-11-23T14:48:30;95221.03;;;21.13;30.35
31595;BME280;18200;48.726;8.892;2022-11-23T14:52:33;95214.88;;;20.76;30.34
31595;BME280;18200;48.726;8.892;2022-11-23T14:56:37;95204.47;;;21.17;29.97
31595;BME280;18200;48.726;8.892;2022-11-23T15:00:41;95219.75;;;20.72;30.85
31595;BME280;18200;48.726;8.892;2022-11-23T15:09:48;95221.78;;;20.27;31.67
31595;BME280;18200;48.726;8.892;2022-11-23T15:13:52;95218.72;;;20.43;30.82
31595;BME280;18200;48.726;8.892;2022-11-23T15:17:56;95224.03;;;20.37;31.83
31595;BME280;18200;48.726;8.892;2022-11-23T15:21:57;95227.50;;;20.20;31.65
31595;BME280;18200;48.726;8.892;2022-11-23T15:26:02;95215.09;;;20.19;31.62
31595;BME280;18200;48.726;8.892;2022-11-23T15:30:12;95223.84;;;19.95;32.67
31595;BME280;18200;48.726;8.892;2022-11-23T15:34:15;95223.84;;;19.95;32.20
31595;BME280;18200;48.726;8.892;2022-11-23T15:38:17;95220.53;;;20.09;32.24
31595;BME280;18200;48.726;8.892;2022-11-23T15:42:20;95227.94;;;19.91;32.14
31595;BME280;18200;48.726;8.892;2022-11-23T15:46:43;95236.06;;;19.64;33.00
31595;BME280;18200;48.726;8.892;2022-11-23T15:54:46;95249.38;;;19.62;33.43
31595;BME280;18200;48.726;8.892;2022-11-23T15:58:48;95252.03;;;19.13;33.74
31595;BME280;18200;48.726;8.892;2022-11-23T16:02:50;95250.53;;;19.12;34.18
31595;BME280;18200;48.726;8.892;2022-11-23T16:06:51;95255.97;;;19.12;34.67
31595;BME280;18200;48.726;8.892;2022-11-23T16:10:53;95251.78;;;19.20;34.01
31595;BME280;18200;48.726;8.892;2022-11-23T16:14:55;95276.31;;;19.29;33.74
31595;BME280;18200;48.726;8.892;2022-11-23T16:18:56;95276.53;;;18.82;33.69
31595;BME280;18200;48.726;8.892;2022-11-23T16:22:59;95284.53;;;19.38;31.86
31595;BME280;18200;48.726;8.892;2022-11-23T16:27:01;95296.47;;;18.57;32.79
31595;BME280;18200;48.726;8.892;2022-11-23T16:31:30;95314.34;;;18.89;32.30
31595;BME280;18200;48.726;8.892;2022-11-23T16:35:34;95323.91;;;18.94;32.42
31595;BME280;18200;48.726;8.892;2022-11-23T16:39:35;95326.69;;;19.03;33.22
31595;BME280;18200;48.726;8.892;2022-11-23T16:43:35;95326.06;;;19.51;32.66
31595;BME280;18200;48.726;8.892;2022-11-23T16:47:50;95335.03;;;19.30;33.19
31595;BME280;18200;48.726;8.892;2022-11-23T16:51:51;95331.63;;;19.17;34.10
31595;BME280;18200;48.726;8.892;2022-11-23T16:55:54;95339.59;;;18.68;34.70
31595;BME280;18200;48.726;8.892;2022-11-23T16:59:56;95345.56;;;18.76;34.51
31595;BME280;18200;48.726;8.892;2022-11-23T17:03:58;95350.38;;;18.93;34.44
31595;BME280;18200;48.726;8.892;2022-11-23T17:07:59;95346.69;;;19.09;35.08
31595;BME280;18200;48.726;8.892;2022-11-23T17:11:59;95360.44;;;18.84;35.23
31595;BME280;18200;48.726;8.892;2022-11-23T17:16:00;95371.66;;;18.51;35.90
31595;BME280;18200;48.726;8.892;2022-11-23T17:20:01;95381.78;;;18.38;36.81
31595;BME280;18200;48.726;8.892;2022-11-23T17:24:01;95385.38;;;18.35;36.98
31595;BME280;18200;48.726;8.892;2022-11-23T17:28:03;95383.47;;;17.98;38.50
31595;BME280;18200;48.726;8.892;2022-11-23T17:32:04;95398.47;;;18.15;38.57
31595;BME280;18200;48.726;8.892;2022-11-23T17:36:07;95406.25;;;18.38;38.44
31595;BME280;18200;48.726;8.892;2022-11-23T17:40:19;95409.91;;;18.70;38.24
31595;BME280;18200;48.726;8.892;2022-11-23T17:44:20;95423.34;;;18.39;38.89
31595;BME280;18200;48.726;8.892;2022-11-23T17:48:21;95422.03;;;18.56;38.53
31595;BME280;18200;48.726;8.892;2022-11-23T17:52:22;95420.16;;;18.53;39.26
31595;BME280;18200;48.726;8.892;2022-11-23T17:56:24;95420.13;;;18.66;39.46
31595;BME280;18200;48.726;8.892;2022-11-23T18:00:26;95420.06;;;18.91;38.74
31595;BME280;18200;48.726;8.892;2022-11-23T18:04:27;95426.28;;;19.13;38.52
31595;BME280;18200;48.726;8.892;2022-11-23T18:08:28;95432.22;;;18.65;39.77
31595;BME280;18200;48.726;8.892;2022-11-23T18:12:28;95433.06;;;18.74;40.00
31595;BME280;18200;48.726;8.892;2022-11-23T18:16:29;95450.72;;;18.70;39.54
31595;BME280;18200;48.726;8.892;2022-11-23T18:20:29;95450.16;;;18.75;39.88
31595;BME280;18200;48.726;8.892;2022-11-23T18:24:30;95459.56;;;18.48;40.33
31595;BME280;18200;48.726;8.892;2022-11-23T18:28:30;95475.66;;;18.30;40.20
31595;BME280;18200;48.726;8.892;2022-11-23T18:32:31;95479.03;;;18.09;41.16
31595;BME280;18200;48.726;8.892;2022-11-23T18:36:31;95483.16;;;17.89;41.66
31595;BME280;18200;48.726;8.892;2022-11-23T18:40:31;95480.94;;;17.71;41.79
31595;BME280;18200;48.726;8.892;2022-11-23T18:44:32;95483.94;;;18.14;40.94
31595;BME280;18200;48.726;8.892;2022-11-23T18:48:32;95494.63;;;17.39;42.89
31595;BME280;18200;48.726;8.892;2022-11-23T18:52:36;95502.91;;;17.48;42.88
31595;BME280;18200;48.726;8.892;2022-11-23T18:56:36;95503.53;;;17.68;42.46
31595;BME280;18200;48.726;8.892;2022-11-23T19:00:37;95504.78;;;17.92;42.38
31595;BME280;18200;48.726;8.892;2022-11-23T19:04:37;95504.75;;;17.67;42.85
31595;BME280;18200;48.726;8.892;2022-11-23T19:08:40;95526.31;;;17.99;42.28
31595;BME280;18200;48.726;8.892;2022-11-23T19:12:41;95535.47;;;18.05;42.44
31595;BME280;18200;48.726;8.892;2022-11-23T19:16:43;95533.72;;;18.11;42.29
31595;BME280;18200;48.726;8.892;2022-11-23T19:20:43;95543.94;;;18.07;42.32
31595;BME280;18200;48.726;8.892;2022-11-23T19:24:44;95555.69;;;18.29;42.10
31595;BME280;18200;48.726;8.892;2022-11-23T19:28:44;95562.50;;;18.63;41.73
31595;BME280;18200;48.726;8.892;2022-11-23T19:32:45;95572.00;;;19.05;41.15
31595;BME280;18200;48.726;8.892;2022-11-23T19:36:46;95578.31;;;19.02;41.01
31595;BME280;18200;48.726;8.892;2022-11-23T19:40:53;95585.53;;;18.71;41.86
31595;BME280;18200;48.726;8.892;2022-11-23T19:44:53;95599.81;;;18.75;41.99
31595;BME280;18200;48.726;8.892;2022-11-23T19:48:56;95613.22;;;18.28;43.15
31595;BME280;18200;48.726;8.892;2022-11-23T19:52:58;95617.44;;;17.75;44.42
31595;BME280;18200;48.726;8.892;2022-11-23T19:56:59;95626.25;;;18.62;42.66
31595;BME280;18200;48.726;8.892;2022-11-23T20:01:02;95634.34;;;18.36;42.79
31595;BME280;18200;48.726;8.892;2022-11-23T20:05:03;95637.41;;;17.97;43.96
31595;BME280;18200;48.726;8.892;2022-11-23T20:09:06;95643.53;;;16.76;46.11
31595;BME280;18200;48.726;8.892;2022-11-23T20:13:07;95653.19;;;17.25;45.19
31595;BME280;18200;48.726;8.892;2022-11-23T20:17:07;95673.25;;;16.63;45.34
31595;BME280;18200;48.726;8.892;2022-11-23T20:21:16;95684.34;;;17.53;43.97
31595;BME280;18200;48.726;8.892;2022-11-23T20:25:17;95700.06;;;16.77;45.06
31595;BME280;18200;48.726;8.892;2022-11-23T20:29:17;95705.13;;;17.59;43.51
31595;BME280;18200;48.726;8.892;2022-11-23T20:33:18;95728.78;;;17.91;43.37
31595;BME280;18200;48.726;8.892;2022-11-23T20:37:18;95750.41;;;17.50;43.71
31595;BME280;18200;48.726;8.892;2022-11-23T20:41:24;95763.38;;;17.58;43.92
31595;BME280;18200;48.726;8.892;2022-11-23T20:45:31;95772.53;;;17.97;42.93
31595;BME280;18200;48.726;8.892;2022-11-23T21:11:29;95815.69;;;18.84;41.24
31595;BME280;18200;48.726;8.892;2022-11-23T21:27:17;95844.69;;;18.75;40.84
31595;BME280;18200;48.726;8.892;2022-11-23T21:31:22;95849.56;;;19.62;39.04
31595;BME280;18200;48.726;8.892;2022-11-23T21:35:23;95851.31;;;19.56;39.38
31595;BME280;18200;48.726;8.892;2022-11-23T21:39:24;95858.97;;;19.07;40.73
31595;BME280;18200;48.726;8.892;2022-11-23T21:43:24;95866.69;;;19.38;39.24
31595;BME280;18200;48.726;8.892;2022-11-23T21:47:25;95866.25;;;19.52;38.83
31595;BME280;18200;48.726;8.892;2022-11-23T21:51:28;95877.38;;;18.87;40.50
31595;BME280;18200;48.726;8.892;2022-11-23T21:55:29;95881.22;;;19.31;39.57
31595;BME280;18200;48.726;8.892;2022-11-23T21:59:31;95881.53;;;19.99;38.26
31595;BME280;18200;48.726;8.892;2022-11-23T22:03:42;95899.47;;;19.59;38.38
31595;BME280;18200;48.726;8.892;2022-11-23T22:08:00;95898.63;;;19.62;38.93
31595;BME280;18200;48.726;8.892;2022-11-23T22:12:01;95891.88;;;19.54;39.21
31595;BME280;18200;48.726;8.892;2022-11-23T22:20:14;95909.81;;;18.82;39.33
31595;BME280;18200;48.726;8.892;2022-11-23T22:24:17;95922.09;;;18.74;39.62
31595;BME280;18200;48.726;8.892;2022-11-23T22:28:42;95927.47;;;17.77;41.06
31595;BME280;18200;48.726;8.892;2022-11-23T22:32:42;95930.81;;;18.81;40.26
31595;BME280;18200;48.726;8.892;2022-11-23T22:36:43;95945.34;;;18.46;40.42
31595;BME280;18200;48.726;8.892;2022-11-23T22:40:46;95940.63;;;18.63;39.81
31595;BME280;18200;48.726;8.892;2022-11-23T22:44:48;95941.31;;;18.18;41.43
31595;BME280;18200;48.726;8.892;2022-11-23T22:48:50;95943.78;;;18.45;40.27
31595;BME280;18200;48.726;8.892;2022-11-23T22:52:51;95959.00;;;17.55;41.86
31595;BME280;18200;48.726;8.892;2022-11-23T22:56:52;95961.31;;;17.92;41.44
31595;BME280;18200;48.726;8.892;2022-11-23T23:00:52;95967.66;;;17.50;41.90
31595;BME280;18200;48.726;8.892;2022-11-23T23:04:53;95978.25;;;17.21;42.25
31595;BME280;18200;48.726;8.892;2022-11-23T23:08:57;95974.63;;;17.08;43.15
31595;BME280;18200;48.726;8.892;2022-11-23T23:12:58;95980.38;;;17.33;41.48
31595;BME280;18200;48.726;8.892;2022-11-23T23:16:59;95984.59;;;17.15;42.12
31595;BME280;18200;48.726;8.892;2022-11-23T23:21:01;95994.16;;;16.99;42.03
31595;BME280;18200;48.726;8.892;2022-11-23T23:25:02;95994.34;;;17.12;41.80
31595;BME280;18200;48.726;8.892;2022-11-23T23:29:03;95987.81;;;16.63;43.18
31595;BME280;18200;48.726;8.892;2022-11-23T23:33:04;96004.28;;;16.99;42.30
31595;BME280;18200;48.726;8.892;2022-11-23T23:37:04;96003.09;;;17.20;41.87
31595;BME280;18200;48.726;8.892;2022-11-23T23:41:06;96009.81;;;17.35;41.73